EXT weather

Exeter International Airport
Exeter, England, United Kingdom

Public forecast

Using degrees Celsius for public forecast. Weather courtesy of forecast.io.

METAR (pilot weather report)

Retrieved 2019/03/22 16:20 UTC (19 minutes ago):

EGTE 221620Z 19008KT 9999 BKN027 11/09 Q1027

TAF (pilot weather forecast)

Forecast is more than 12 hours old.

Retrieved 2012/04/19 12:15 UTC (7 years ago):

TAF TAF EGTE 191401Z 1912/1924 31016KT 9999 SCT030 SCT035 PROB40 TEMPO 1915/1918 7000 SHRA BKN014